Hamiota, Canada
Current Conditions -  °F | °C
As of 4:00 PM on Tuesday 21 Oct 2014 (Local Time) from CYBR Reporting Station
Few Clouds Few Clouds  
Wind Chill: 68°   Ceiling: Unl
Heat Index: 68°   Visibility: 15mi
Dew Point: 43°   Wind: 18mph
Humidity: 40%   Direction: 150°SSE
Pressure: 29.71"   Gusts: 24mph
Location:  50.18°N, 100.6°W
Report Text: CYBR 212100Z 15016G21KT 15SM FEW250 20/06 A2971 RMK CI2 SLP067 DENSITY ALT 2400FT
Loading
Personal Weather Stations






























Interactive Weather Map
Tropical Storm Tracking
New forecast layout! Learn more

10-Day Weather Forecast

Advertisements
Track Severe Weather on mobile